Unabara — JI3188 — position and weather

sailwx.info

Track history (hours):
 
Tides and Currents Weather Stations Pressure Air Temp Water Temp Dewpoint Dewpoint Depression Visibility Wind Speed Wind Dir Waves Ship Positions

Unabara

Last reported at 2018-Jan-23 08:49 UTC. Time now 2018-Jan-23 11:54 UTC.
Position N 34°15' E 135°07'.

Length 30 m.

Type: Tug. MMSI: 431008888.

Date/timePositionNaut miles runAvg speedWind from/ knotsBaromVisibWave heightAir tempDewpointWater temp
2018-Jan-23 08:49N 34°15' E 135°07'0 0.8
2018-Jan-23 08:22N 34°14' E 135°07'2 3.0
2018-Jan-23 07:51N 34°14' E 135°06'0 0.1
2018-Jan-23 07:28N 34°14' E 135°06'1 2.7
2018-Jan-23 07:00N 34°14' E 135°07'0 0.9
2018-Jan-23 06:29N 34°15' E 135°07'0 0.0
2018-Jan-23 05:29N 34°15' E 135°07'0 0.0
2018-Jan-23 03:47N 34°15' E 135°07'0 0.0
2018-Jan-23 03:17N 34°15' E 135°07'0 0.0
2018-Jan-23 02:59N 34°15' E 135°07'0 0.0
2018-Jan-23 02:11N 34°15' E 135°07'0 0.0
2018-Jan-23 01:53N 34°15' E 135°07'0 0.0
2018-Jan-23 01:30N 34°15' E 135°07'1 2.8
2018-Jan-23 00:58N 34°13' E 135°06'1 1.4
2018-Jan-23 00:30N 34°13' E 135°07'2 4.0
2018-Jan-23 00:00N 34°15' E 135°07'0 0.1
2018-Jan-22 23:29N 34°15' E 135°07'0 0.0
2018-Jan-22 10:50N 34°15' E 135°07'1 1.5
2018-Jan-22 10:12N 34°14' E 135°08'0 0.2
2018-Jan-22 10:00N 34°14' E 135°08'2 3.4
2018-Jan-22 09:24N 34°14' E 135°05'1 2.4
2018-Jan-22 08:56N 34°13' E 135°05'2 1.1
2018-Jan-22 06:56N 34°15' E 135°07'0 0.0
2018-Jan-22 04:05N 34°15' E 135°07'0 0.0
2018-Jan-22 03:44N 34°15' E 135°07'0 0.0
2018-Jan-22 03:20N 34°15' E 135°07'0 0.0
2018-Jan-22 02:56N 34°15' E 135°07'0 0.0
2018-Jan-21 07:30N 34°15' E 135°07'0 0.7
2018-Jan-21 06:59N 34°14' E 135°07'1 2.9
2018-Jan-21 06:29N 34°14' E 135°06'0 1.0
2018-Jan-21 06:00N 34°14' E 135°06'1 0.3
2018-Jan-21 03:34N 34°15' E 135°07'0 0.0
2018-Jan-21 02:41N 34°15' E 135°07'0 0.0
2018-Jan-21 02:22N 34°15' E 135°07'0 0.0
2018-Jan-21 01:59N 34°15' E 135°07'0 0.0
2018-Jan-21 01:28N 34°15' E 135°07'0 0.0
2018-Jan-21 00:56N 34°15' E 135°07'0 0.3
2018-Jan-20 23:29N 34°14' E 135°07'0 0.7
2018-Jan-20 22:55N 34°14' E 135°08'0 0.5
2018-Jan-20 22:30N 34°14' E 135°07'2 3.4
2018-Jan-20 22:00N 34°14' E 135°05'0 0.8
2018-Jan-20 21:30N 34°13' E 135°05'2 0.2
2018-Jan-20 10:46N 34°15' E 135°07'0 0.6
2018-Jan-20 10:07N 34°14' E 135°07'1 3.5
2018-Jan-20 09:53N 34°14' E 135°06'0 1.3
2018-Jan-20 09:29N 34°14' E 135°06'  
Track history (hours):
 
Tides and Currents Weather Stations Pressure Air Temp Water Temp Dewpoint Dewpoint Depression Visibility Wind Speed Wind Dir Waves Ship Positions

Unabara

Last reported at 2018-Jan-23 08:49 UTC. Time now 2018-Jan-23 11:54 UTC.
Position N 34°15' E 135°07'.

Length 30 m.

Type: Tug. MMSI: 431008888.

Date/timePositionNaut miles runAvg speedWind from/ knotsBaromVisibWave heightAir tempDewpointWater temp
2018-Jan-23 08:49N 34°15' E 135°07'0 0.8
2018-Jan-23 08:22N 34°14' E 135°07'2 3.0
2018-Jan-23 07:51N 34°14' E 135°06'0 0.1
2018-Jan-23 07:28N 34°14' E 135°06'1 2.7
2018-Jan-23 07:00N 34°14' E 135°07'0 0.9
2018-Jan-23 06:29N 34°15' E 135°07'0 0.0
2018-Jan-23 05:29N 34°15' E 135°07'0 0.0
2018-Jan-23 03:47N 34°15' E 135°07'0 0.0
2018-Jan-23 03:17N 34°15' E 135°07'0 0.0
2018-Jan-23 02:59N 34°15' E 135°07'0 0.0
2018-Jan-23 02:11N 34°15' E 135°07'0 0.0
2018-Jan-23 01:53N 34°15' E 135°07'0 0.0
2018-Jan-23 01:30N 34°15' E 135°07'1 2.8
2018-Jan-23 00:58N 34°13' E 135°06'1 1.4
2018-Jan-23 00:30N 34°13' E 135°07'2 4.0
2018-Jan-23 00:00N 34°15' E 135°07'0 0.1
2018-Jan-22 23:29N 34°15' E 135°07'0 0.0
2018-Jan-22 10:50N 34°15' E 135°07'1 1.5
2018-Jan-22 10:12N 34°14' E 135°08'0 0.2
2018-Jan-22 10:00N 34°14' E 135°08'2 3.4
2018-Jan-22 09:24N 34°14' E 135°05'1 2.4
2018-Jan-22 08:56N 34°13' E 135°05'2 1.1
2018-Jan-22 06:56N 34°15' E 135°07'0 0.0
2018-Jan-22 04:05N 34°15' E 135°07'0 0.0
2018-Jan-22 03:44N 34°15' E 135°07'0 0.0
2018-Jan-22 03:20N 34°15' E 135°07'0 0.0
2018-Jan-22 02:56N 34°15' E 135°07'0 0.0
2018-Jan-21 07:30N 34°15' E 135°07'0 0.7
2018-Jan-21 06:59N 34°14' E 135°07'1 2.9
2018-Jan-21 06:29N 34°14' E 135°06'0 1.0
2018-Jan-21 06:00N 34°14' E 135°06'1 0.3
2018-Jan-21 03:34N 34°15' E 135°07'0 0.0
2018-Jan-21 02:41N 34°15' E 135°07'0 0.0
2018-Jan-21 02:22N 34°15' E 135°07'0 0.0
2018-Jan-21 01:59N 34°15' E 135°07'0 0.0
2018-Jan-21 01:28N 34°15' E 135°07'0 0.0
2018-Jan-21 00:56N 34°15' E 135°07'0 0.3
2018-Jan-20 23:29N 34°14' E 135°07'0 0.7
2018-Jan-20 22:55N 34°14' E 135°08'0 0.5
2018-Jan-20 22:30N 34°14' E 135°07'2 3.4
2018-Jan-20 22:00N 34°14' E 135°05'0 0.8
2018-Jan-20 21:30N 34°13' E 135°05'2 0.2
2018-Jan-20 10:46N 34°15' E 135°07'0 0.6
2018-Jan-20 10:07N 34°14' E 135°07'1 3.5
2018-Jan-20 09:53N 34°14' E 135°06'0 1.3
2018-Jan-20 09:29N 34°14' E 135°06'  

Dump ship's entire track history